createdAt,value
2023-01-04T00:01:34.918Z,100277.67
2023-01-04T00:04:03.125Z,100280.16
2023-01-04T00:06:31.179Z,100270.05
2023-01-04T00:08:59.182Z,100267.02
2023-01-04T00:11:28.297Z,100268.44
2023-01-04T00:14:01.810Z,100266.79
2023-01-04T00:16:30.481Z,100265.00
2023-01-04T00:18:58.838Z,100264.86
2023-01-04T00:21:29.369Z,100268.12
2023-01-04T00:24:01.586Z,100266.44
2023-01-04T00:26:32.477Z,100269.39
2023-01-04T00:29:06.551Z,100264.74
2023-01-04T00:31:35.697Z,100263.23
2023-01-04T00:34:05.704Z,100262.54
2023-01-04T00:36:34.679Z,100265.96
2023-01-04T00:39:14.368Z,100262.02
2023-01-04T00:42:00.096Z,100269.64
2023-01-04T00:44:30.514Z,100275.23
2023-01-04T00:47:00.566Z,100266.70
2023-01-04T00:49:30.378Z,100265.36
2023-01-04T00:51:58.639Z,100265.08
2023-01-04T00:54:27.034Z,100262.77
2023-01-04T00:56:55.102Z,100263.62
2023-01-04T00:59:23.417Z,100262.16
2023-01-04T01:01:51.940Z,100263.40
2023-01-04T01:04:22.987Z,100261.39
2023-01-04T01:06:52.020Z,100259.12
2023-01-04T01:09:23.249Z,100262.30
2023-01-04T01:11:53.223Z,100260.70
2023-01-04T01:14:24.411Z,100261.48
2023-01-04T01:16:56.554Z,100264.08
2023-01-04T01:19:28.742Z,100264.50
2023-01-04T01:21:57.862Z,100266.13
2023-01-04T01:24:27.382Z,100267.77
2023-01-04T01:26:56.687Z,100268.30
2023-01-04T01:29:25.245Z,100269.71
2023-01-04T01:31:53.698Z,100273.11
2023-01-04T01:34:22.241Z,100270.62
2023-01-04T01:36:50.320Z,100273.17
2023-01-04T01:39:18.692Z,100272.53
2023-01-04T01:41:46.825Z,100274.38
2023-01-04T01:44:44.099Z,100272.89
2023-01-04T01:47:25.317Z,100272.20
2023-01-04T01:49:54.144Z,100266.23
2023-01-04T01:52:27.796Z,100269.86
2023-01-04T01:55:00.958Z,100263.08
2023-01-04T01:57:34.083Z,100257.48
2023-01-04T02:00:10.099Z,100245.36
2023-01-04T02:05:52.900Z,100241.88
2023-01-04T02:08:24.331Z,100234.30
2023-01-04T02:10:52.509Z,100231.11
2023-01-04T02:13:50.662Z,100231.89
2023-01-04T02:16:44.719Z,100232.15
2023-01-04T02:19:33.770Z,100234.77
2023-01-04T02:22:38.320Z,100232.80
2023-01-04T02:25:44.818Z,100234.15
2023-01-04T02:28:36.309Z,100232.98
2023-01-04T02:31:22.746Z,100232.61
2023-01-04T02:34:12.984Z,100224.70
2023-01-04T02:37:00.615Z,100221.19
2023-01-04T02:39:57.595Z,100220.10
2023-01-04T02:43:16.065Z,100219.38
2023-01-04T02:45:58.764Z,100215.17
2023-01-04T02:48:53.849Z,100214.44
2023-01-04T02:51:27.194Z,100209.37
2023-01-04T02:53:58.350Z,100203.29
2023-01-04T02:56:36.550Z,100202.58
2023-01-04T02:59:39.031Z,100199.14
2023-01-04T03:02:54.362Z,100192.03
2023-01-04T03:06:01.890Z,100189.40
2023-01-04T03:08:51.695Z,100191.40
2023-01-04T03:11:38.621Z,100192.65
2023-01-04T03:14:30.906Z,100186.98
2023-01-04T03:17:07.295Z,100180.80
2023-01-04T03:19:55.052Z,100178.43
2023-01-04T03:22:44.813Z,100169.77
2023-01-04T03:25:34.204Z,100161.64
2023-01-04T03:28:21.247Z,100156.80
2023-01-04T03:31:19.893Z,100152.52
2023-01-04T03:34:07.337Z,100151.85
2023-01-04T03:36:47.220Z,100143.11
2023-01-04T03:39:43.941Z,100140.30
2023-01-04T03:42:42.810Z,100136.30
2023-01-04T03:45:38.134Z,100129.55
2023-01-04T03:48:29.171Z,100130.98
2023-01-04T03:51:09.645Z,100127.27
2023-01-04T03:53:45.722Z,100125.91
2023-01-04T03:56:16.527Z,100125.55
2023-01-04T03:58:44.730Z,100125.20
2023-01-04T04:01:13.430Z,100129.08
2023-01-04T04:04:00.483Z,100121.11
2023-01-04T04:06:47.516Z,100120.45
2023-01-04T04:09:15.776Z,100113.66
2023-01-04T04:11:44.077Z,100115.83
2023-01-04T04:14:12.640Z,100111.21
2023-01-04T04:16:41.128Z,100109.94
2023-01-04T04:19:09.454Z,100117.85
2023-01-04T04:21:37.540Z,100114.35
2023-01-04T04:24:06.213Z,100107.20
2023-01-04T04:26:34.517Z,100105.85
2023-01-04T04:29:02.496Z,100099.58
2023-01-04T04:31:31.022Z,100089.99
2023-01-04T04:33:59.304Z,100083.77
2023-01-04T04:36:27.300Z,100081.70
2023-01-04T04:38:55.469Z,100081.91
2023-01-04T04:41:38.897Z,100087.05
2023-01-04T04:44:25.087Z,100091.04
2023-01-04T04:46:53.156Z,100082.90
2023-01-04T04:49:21.272Z,100081.02
2023-01-04T04:51:49.379Z,100080.95
2023-01-04T04:54:20.016Z,100078.45
2023-01-04T04:56:49.376Z,100076.38
2023-01-04T04:59:17.619Z,100068.30
2023-01-04T05:01:46.083Z,100066.98
2023-01-04T05:04:16.931Z,100072.40
2023-01-04T05:06:47.269Z,100072.89
2023-01-04T05:09:16.397Z,100074.16
2023-01-04T05:12:03.962Z,100068.96
2023-01-04T05:14:32.815Z,100068.02
2023-01-04T05:17:00.884Z,100066.70
2023-01-04T05:19:29.166Z,100064.05
2023-01-04T05:21:57.278Z,100063.21
2023-01-04T05:24:25.381Z,100061.39
2023-01-04T05:26:53.541Z,100059.16
2023-01-04T05:29:40.238Z,100054.29
2023-01-04T05:32:08.382Z,100053.35
2023-01-04T05:34:36.544Z,100055.11
2023-01-04T05:37:04.665Z,100054.74
2023-01-04T05:39:32.969Z,100053.91
2023-01-04T05:42:19.814Z,100052.25
2023-01-04T05:44:47.982Z,100046.70
2023-01-04T05:47:16.190Z,100046.60
2023-01-04T05:49:44.577Z,100050.16
2023-01-04T05:52:12.894Z,100047.23
2023-01-04T05:54:41.207Z,100043.19
2023-01-04T05:57:09.741Z,100042.62
2023-01-04T05:59:41.731Z,100044.23
2023-01-04T06:02:19.401Z,100039.83
2023-01-04T06:04:54.615Z,100032.20
2023-01-04T06:07:28.006Z,100028.35
2023-01-04T06:09:56.723Z,100028.91
2023-01-04T06:12:26.947Z,100024.15
2023-01-04T06:14:55.148Z,100024.85
2023-01-04T06:17:23.321Z,100020.86
2023-01-04T06:19:51.384Z,100017.70
2023-01-04T06:22:20.729Z,100014.02
2023-01-04T06:24:48.921Z,100010.65
2023-01-04T06:27:17.217Z,100006.00
2023-01-04T06:29:45.376Z,100006.27
2023-01-04T06:32:13.629Z,99998.82
2023-01-04T06:34:41.608Z,99997.34
2023-01-04T06:37:09.986Z,99994.23
2023-01-04T06:39:38.416Z,99988.08
2023-01-04T06:42:26.743Z,99988.41
2023-01-04T06:44:54.831Z,99989.68
2023-01-04T06:47:22.783Z,99999.04
2023-01-04T06:49:50.876Z,99994.53
2023-01-04T06:52:19.200Z,99997.98
2023-01-04T06:54:47.235Z,100001.38
2023-01-04T06:57:15.279Z,99998.69
2023-01-04T06:59:43.479Z,99996.85
2023-01-04T07:02:15.236Z,99995.27
2023-01-04T07:04:44.880Z,99989.50
2023-01-04T07:07:12.998Z,99992.33
2023-01-04T07:09:41.098Z,99996.39
2023-01-04T07:12:09.238Z,99996.77
2023-01-04T07:14:37.481Z,100000.38
2023-01-04T07:17:05.531Z,99998.77
2023-01-04T07:19:33.945Z,99991.95
2023-01-04T07:22:02.235Z,99979.84
2023-01-04T07:24:30.869Z,99984.75
2023-01-04T07:27:03.263Z,99983.04
2023-01-04T07:29:31.446Z,99991.34
2023-01-04T07:31:59.501Z,99991.14
2023-01-04T07:34:28.546Z,99993.66
2023-01-04T07:36:56.631Z,99983.11
2023-01-04T07:39:24.598Z,99975.92
2023-01-04T07:41:52.877Z,99967.90
2023-01-04T07:44:25.672Z,99965.96
2023-01-04T07:46:54.808Z,99963.49
2023-01-04T07:49:23.004Z,99967.89
2023-01-04T07:51:51.225Z,99963.55
2023-01-04T07:54:19.837Z,99962.98
2023-01-04T07:56:48.649Z,99961.24
2023-01-04T07:59:19.614Z,99955.34
2023-01-04T08:01:48.854Z,99945.98
2023-01-04T08:04:17.801Z,99948.61
2023-01-04T08:06:46.891Z,99949.16
2023-01-04T08:09:15.235Z,99939.04
2023-01-04T08:11:43.947Z,99932.96
2023-01-04T08:14:12.728Z,99929.84
2023-01-04T08:16:43.020Z,99928.14
2023-01-04T08:19:17.455Z,99924.67
2023-01-04T08:21:45.904Z,99913.84
2023-01-04T08:24:19.953Z,99908.98
2023-01-04T08:26:48.015Z,99908.02
2023-01-04T08:29:16.636Z,99914.70
2023-01-04T08:31:44.832Z,99909.34
2023-01-04T08:34:13.115Z,99906.11
2023-01-04T08:36:49.677Z,99905.43
2023-01-04T08:39:18.241Z,99906.43
2023-01-04T08:42:19.455Z,99903.22
2023-01-04T08:44:41.180Z,99900.55
2023-01-04T08:47:09.222Z,99897.77
2023-01-04T08:49:37.285Z,99889.23
2023-01-04T08:52:05.867Z,99878.60
2023-01-04T08:54:33.978Z,99872.52
2023-01-04T08:57:02.013Z,99869.63
2023-01-04T08:59:30.344Z,99861.13
2023-01-04T09:02:04.931Z,99854.84
2023-01-04T09:04:33.949Z,99849.50
2023-01-04T09:07:01.998Z,99846.61
2023-01-04T09:09:30.544Z,99843.30
2023-01-04T09:11:59.953Z,99840.89
2023-01-04T09:14:28.083Z,99840.25
2023-01-04T09:16:56.457Z,99831.61
2023-01-04T09:19:24.872Z,99825.30
2023-01-04T09:21:52.914Z,99817.21
2023-01-04T09:24:21.063Z,99809.77
2023-01-04T09:26:49.393Z,99809.33
2023-01-04T09:29:17.591Z,99807.29
2023-01-04T09:31:45.866Z,99804.73
2023-01-04T09:34:16.431Z,99804.55
2023-01-04T09:36:48.798Z,99801.66
2023-01-04T09:39:23.189Z,99799.45
2023-01-04T09:42:05.519Z,99790.34
2023-01-04T09:47:43.188Z,99777.89
2023-01-04T09:50:14.533Z,99771.92
2023-01-04T09:52:56.348Z,99763.90
2023-01-04T09:55:39.532Z,99758.42
2023-01-04T09:58:20.855Z,99751.98
2023-01-04T10:01:02.716Z,99746.40
2023-01-04T10:03:36.736Z,99737.08
2023-01-04T10:06:07.361Z,99730.54
2023-01-04T10:08:35.722Z,99720.70
2023-01-04T10:11:15.797Z,99712.59
2023-01-04T10:14:03.063Z,99700.77
2023-01-04T10:17:12.319Z,99690.42
2023-01-04T10:23:05.469Z,99681.91
2023-01-04T10:26:01.124Z,99671.14
2023-01-04T10:28:48.558Z,99662.56
2023-01-04T10:31:39.962Z,99647.27
2023-01-04T10:34:28.976Z,99641.73
2023-01-04T10:37:00.912Z,99631.35
2023-01-04T10:39:33.469Z,99626.59
2023-01-04T10:42:20.252Z,99622.14
2023-01-04T10:45:03.304Z,99619.00
2023-01-04T10:48:12.926Z,99617.91
2023-01-04T10:51:03.544Z,99614.55
2023-01-04T10:53:52.911Z,99615.29
2023-01-04T10:56:40.692Z,99605.19
2023-01-04T10:59:16.394Z,99590.39
2023-01-04T11:01:50.632Z,99582.85
2023-01-04T11:04:23.975Z,99574.48
2023-01-04T11:07:31.841Z,99566.20
2023-01-04T11:10:06.821Z,99557.51
2023-01-04T11:12:35.137Z,99558.37
2023-01-04T11:15:04.022Z,99550.88
2023-01-04T11:17:32.713Z,99551.68
2023-01-04T11:20:01.322Z,99544.98
2023-01-04T11:22:54.240Z,99536.63
2023-01-04T11:25:35.092Z,99531.90
2023-01-04T11:28:07.096Z,99534.30
2023-01-04T11:30:53.905Z,99529.20
2023-01-04T11:33:24.083Z,99511.57
2023-01-04T11:35:57.133Z,99495.97
2023-01-04T11:38:27.877Z,99486.84
2023-01-04T11:40:57.997Z,99469.63
2023-01-04T11:43:31.444Z,99452.31
2023-01-04T11:46:21.316Z,99452.27
2023-01-04T11:48:49.370Z,99445.61
2023-01-04T11:51:20.792Z,99438.79
2023-01-04T11:53:58.000Z,99438.98
2023-01-04T11:56:29.383Z,99443.21
2023-01-04T11:59:09.669Z,99442.73
2023-01-04T12:01:45.032Z,99440.09
2023-01-04T12:04:26.455Z,99430.61
2023-01-04T12:07:05.183Z,99413.75
2023-01-04T12:09:33.389Z,99407.30
2023-01-04T12:12:01.713Z,99402.05
2023-01-04T12:14:34.717Z,99387.98
2023-01-04T12:17:26.201Z,99389.46
2023-01-04T12:19:56.748Z,99378.30
2023-01-04T12:22:36.364Z,99373.08
2023-01-04T12:25:09.287Z,99366.97
2023-01-04T12:27:37.846Z,99361.23
2023-01-04T12:30:08.096Z,99360.98
2023-01-04T12:32:36.142Z,99353.67
2023-01-04T12:35:04.424Z,99343.83
2023-01-04T12:37:40.634Z,99337.90
2023-01-04T12:40:45.581Z,99332.48
2023-01-04T12:43:16.791Z,99318.39
2023-01-04T12:45:46.171Z,99310.17
2023-01-04T12:48:48.600Z,99292.54
2023-01-04T12:51:33.945Z,99283.64
2023-01-04T12:54:10.288Z,99277.98
2023-01-04T12:57:12.594Z,99280.46
2023-01-04T13:00:00.410Z,99273.46
2023-01-04T13:02:32.406Z,99266.98
2023-01-04T13:05:54.515Z,99258.68
2023-01-04T13:07:58.445Z,99247.79
2023-01-04T13:10:42.326Z,99240.84
2023-01-04T13:13:29.113Z,99234.92
2023-01-04T13:16:23.166Z,99228.92
2023-01-04T13:18:57.148Z,99220.77
2023-01-04T13:21:33.330Z,99207.58
2023-01-04T13:24:15.180Z,99197.78
2023-01-04T13:26:51.279Z,99196.27
2023-01-04T13:29:28.091Z,99194.23
2023-01-04T13:32:00.170Z,99184.84
2023-01-04T13:34:36.529Z,99181.18
2023-01-04T13:37:15.797Z,99177.87
2023-01-04T13:39:44.895Z,99175.31
2023-01-04T13:42:27.173Z,99171.63
2023-01-04T13:45:19.159Z,99163.65
2023-01-04T13:47:51.895Z,99157.96
2023-01-04T13:50:31.923Z,99153.63
2023-01-04T13:53:07.442Z,99152.52
2023-01-04T13:55:38.275Z,99144.30
2023-01-04T13:58:17.711Z,99138.30
2023-01-04T14:00:54.935Z,99137.09
2023-01-04T14:03:31.551Z,99131.09
2023-01-04T14:06:11.869Z,99128.61
2023-01-04T14:08:52.787Z,99122.91
2023-01-04T14:11:46.780Z,99119.31
2023-01-04T14:14:20.836Z,99114.49
2023-01-04T14:16:50.921Z,99110.78
2023-01-04T14:19:45.894Z,99113.38
2023-01-04T14:22:23.058Z,99108.48
2023-01-04T14:25:11.706Z,99109.54
2023-01-04T14:27:42.800Z,99105.54
2023-01-04T14:30:20.525Z,99097.35
2023-01-04T14:32:58.924Z,99095.60
2023-01-04T14:35:28.535Z,99091.46
2023-01-04T14:38:03.771Z,99082.57
2023-01-04T14:40:32.063Z,99070.33
2023-01-04T14:43:00.216Z,99069.69
2023-01-04T14:45:28.218Z,99056.88
2023-01-04T14:47:56.876Z,99047.67
2023-01-04T14:50:24.961Z,99041.27
2023-01-04T14:52:54.476Z,99035.73
2023-01-04T14:55:24.099Z,99026.67
2023-01-04T14:57:52.117Z,99017.33
2023-01-04T15:00:20.289Z,99018.41
2023-01-04T15:02:51.077Z,99003.68
2023-01-04T15:05:22.696Z,99003.86
2023-01-04T15:07:50.931Z,98991.85
2023-01-04T15:10:26.480Z,98987.73
2023-01-04T15:12:55.157Z,98993.92
2023-01-04T15:15:23.458Z,98992.63
2023-01-04T15:17:51.732Z,98992.27
2023-01-04T15:20:19.846Z,98996.85
2023-01-04T15:22:47.945Z,98991.25
2023-01-04T15:25:16.363Z,98987.89
2023-01-04T15:27:44.368Z,98987.77
2023-01-04T15:30:13.046Z,98984.88
2023-01-04T15:32:41.797Z,98979.39
2023-01-04T15:35:10.655Z,98971.94
2023-01-04T15:37:38.638Z,98971.76
2023-01-04T15:40:07.197Z,98962.80
2023-01-04T15:42:54.096Z,98952.55
2023-01-04T15:45:24.081Z,98946.20
2023-01-04T15:47:52.748Z,98936.29
2023-01-04T15:50:20.856Z,98940.93
2023-01-04T15:52:49.171Z,98938.79
2023-01-04T15:55:17.352Z,98936.88
2023-01-04T15:57:45.414Z,98934.56
2023-01-04T16:00:14.698Z,98932.11
2023-01-04T16:02:43.156Z,98927.23
2023-01-04T16:05:11.342Z,98925.14
2023-01-04T16:07:39.526Z,98922.82
2023-01-04T16:10:08.342Z,98921.55
2023-01-04T16:12:43.040Z,98913.61
2023-01-04T16:15:16.905Z,98910.44
2023-01-04T16:17:45.842Z,98905.91
2023-01-04T16:20:17.600Z,98898.59
2023-01-04T16:22:45.881Z,98895.36
2023-01-04T16:25:14.289Z,98890.55
2023-01-04T16:27:44.003Z,98883.56
2023-01-04T16:30:13.788Z,98881.31
2023-01-04T16:32:43.758Z,98874.63
2023-01-04T16:35:12.263Z,98872.49
2023-01-04T16:37:40.403Z,98865.27
2023-01-04T16:40:09.942Z,98856.45
2023-01-04T16:42:38.307Z,98855.84
2023-01-04T16:45:07.294Z,98849.42
2023-01-04T16:47:43.266Z,98845.30
2023-01-04T16:50:12.788Z,98837.14
2023-01-04T16:52:41.238Z,98835.64
2023-01-04T16:55:11.107Z,98830.32
2023-01-04T16:57:39.144Z,98825.20
2023-01-04T17:00:07.721Z,98818.58
2023-01-04T17:02:35.914Z,98813.58
2023-01-04T17:05:04.659Z,98812.77
2023-01-04T17:07:33.326Z,98811.44
2023-01-04T17:10:02.121Z,98808.70
2023-01-04T17:12:47.513Z,98802.23
2023-01-04T17:18:06.355Z,98791.20
2023-01-04T17:20:34.379Z,98789.14
2023-01-04T17:23:02.629Z,98791.40
2023-01-04T17:25:31.384Z,98777.76
2023-01-04T17:27:59.760Z,98777.95
2023-01-04T17:30:28.063Z,98778.17
2023-01-04T17:32:56.205Z,98769.65
2023-01-04T17:35:24.338Z,98773.16
2023-01-04T17:37:52.565Z,98762.89
2023-01-04T17:40:23.318Z,98755.67
2023-01-04T17:42:51.778Z,98752.15
2023-01-04T17:45:20.343Z,98749.46
2023-01-04T17:47:48.379Z,98747.02
2023-01-04T17:50:17.615Z,98737.77
2023-01-04T17:52:47.610Z,98735.16
2023-01-04T17:55:15.712Z,98727.61
2023-01-04T17:57:44.255Z,98718.67
2023-01-04T18:00:14.988Z,98709.83
2023-01-04T18:02:44.035Z,98704.69
2023-01-04T18:05:12.848Z,98703.02
2023-01-04T18:07:40.997Z,98706.16
2023-01-04T18:10:20.560Z,98692.67
2023-01-04T18:12:49.529Z,98698.89
2023-01-04T18:15:17.692Z,98693.61
2023-01-04T18:17:45.745Z,98694.66
2023-01-04T18:20:24.021Z,98687.39
2023-01-04T18:22:53.214Z,98681.73
2023-01-04T18:25:21.374Z,98681.16
2023-01-04T18:27:49.444Z,98675.45
2023-01-04T18:30:17.651Z,98672.96
2023-01-04T18:32:46.031Z,98672.91
2023-01-04T18:35:14.192Z,98668.08
2023-01-04T18:37:45.598Z,98672.48
2023-01-04T18:40:13.925Z,98665.72
2023-01-04T18:42:46.598Z,98660.56
2023-01-04T18:45:16.190Z,98665.02
2023-01-04T18:47:47.657Z,98653.20
2023-01-04T18:50:17.190Z,98654.69
2023-01-04T18:52:45.742Z,98647.25
2023-01-04T18:55:17.092Z,98642.55
2023-01-04T18:57:45.304Z,98637.44
2023-01-04T19:00:14.145Z,98640.89
2023-01-04T19:02:42.375Z,98633.81
2023-01-04T19:05:12.368Z,98625.76
2023-01-04T19:07:41.628Z,98628.87
2023-01-04T19:10:09.711Z,98626.74
2023-01-04T19:12:38.946Z,98624.17
2023-01-04T19:15:08.667Z,98621.26
2023-01-04T19:17:37.792Z,98611.75
2023-01-04T19:20:06.916Z,98609.16
2023-01-04T19:22:35.592Z,98595.43
2023-01-04T19:25:04.022Z,98585.30
2023-01-04T19:27:32.174Z,98580.97
2023-01-04T19:30:01.135Z,98578.16
2023-01-04T19:32:33.403Z,98578.04
2023-01-04T19:35:02.583Z,98570.34
2023-01-04T19:37:30.669Z,98561.80
2023-01-04T19:39:58.691Z,98566.10
2023-01-04T19:42:26.970Z,98567.22
2023-01-04T19:44:54.988Z,98571.39
2023-01-04T19:47:23.018Z,98564.97
2023-01-04T19:49:51.273Z,98561.34
2023-01-04T19:52:19.354Z,98558.55
2023-01-04T19:54:47.323Z,98560.27
2023-01-04T19:57:15.829Z,98557.34
2023-01-04T19:59:43.889Z,98565.68
2023-01-04T20:02:12.325Z,98565.20
2023-01-04T20:04:40.828Z,98553.33
2023-01-04T20:07:09.026Z,98561.23
2023-01-04T20:09:37.212Z,98564.84
2023-01-04T20:12:05.681Z,98558.77
2023-01-04T20:14:33.962Z,98547.68
2023-01-04T20:17:02.011Z,98549.48
2023-01-04T20:19:30.396Z,98547.35
2023-01-04T20:21:58.388Z,98543.76
2023-01-04T20:24:26.837Z,98534.72
2023-01-04T20:26:55.247Z,98532.55
2023-01-04T20:29:23.475Z,98520.89
2023-01-04T20:31:51.689Z,98515.84
2023-01-04T20:34:19.971Z,98515.86
2023-01-04T20:36:48.053Z,98500.46
2023-01-04T20:39:16.193Z,98501.98
2023-01-04T20:42:04.233Z,98511.02
2023-01-04T20:44:32.380Z,98515.85
2023-01-04T20:47:01.933Z,98516.44
2023-01-04T20:49:30.427Z,98501.16
2023-01-04T20:51:58.695Z,98516.14
2023-01-04T20:54:26.711Z,98522.60
2023-01-04T20:56:54.844Z,98507.41
2023-01-04T20:59:22.839Z,98486.83
2023-01-04T21:01:50.920Z,98498.95
2023-01-04T21:04:19.114Z,98507.21
2023-01-04T21:06:47.222Z,98502.02
2023-01-04T21:09:15.361Z,98480.49
2023-01-04T21:11:44.286Z,98472.96
2023-01-04T21:14:13.178Z,98474.23
2023-01-04T21:16:42.017Z,98472.71
2023-01-04T21:19:10.242Z,98467.84
2023-01-04T21:21:38.482Z,98468.53
2023-01-04T21:24:06.878Z,98462.20
2023-01-04T21:26:35.099Z,98464.33
2023-01-04T21:29:03.231Z,98458.23
2023-01-04T21:31:31.371Z,98454.90
2023-01-04T21:33:59.578Z,98451.13
2023-01-04T21:36:28.733Z,98445.88
2023-01-04T21:38:58.697Z,98443.11
2023-01-04T21:41:27.358Z,98434.91
2023-01-04T21:43:57.349Z,98439.71
2023-01-04T21:46:26.840Z,98433.73
2023-01-04T21:48:59.563Z,98426.33
2023-01-04T21:51:30.708Z,98433.97
2023-01-04T21:53:58.992Z,98432.04
2023-01-04T21:56:27.702Z,98423.31
2023-01-04T21:58:55.704Z,98429.17
2023-01-04T22:01:30.979Z,98427.65
2023-01-04T22:04:04.067Z,98430.02
2023-01-04T22:06:34.168Z,98421.95
2023-01-04T22:09:02.198Z,98415.06
2023-01-04T22:11:30.485Z,98412.68
2023-01-04T22:13:58.477Z,98400.80
2023-01-04T22:16:26.670Z,98412.88
2023-01-04T22:18:55.002Z,98408.45
2023-01-04T22:21:26.729Z,98400.10
2023-01-04T22:23:55.091Z,98400.78
2023-01-04T22:26:24.159Z,98397.05
2023-01-04T22:28:52.160Z,98385.83
2023-01-04T22:31:20.183Z,98384.30
2023-01-04T22:33:48.341Z,98382.86
2023-01-04T22:36:23.030Z,98385.97
2023-01-04T22:38:53.981Z,98382.31
2023-01-04T22:41:25.829Z,98374.94
2023-01-04T22:43:59.359Z,98376.58
2023-01-04T22:46:29.095Z,98375.71
2023-01-04T22:48:57.466Z,98369.64
2023-01-04T22:51:29.214Z,98357.77
2023-01-04T22:53:59.554Z,98349.42
2023-01-04T22:56:28.709Z,98340.40
2023-01-04T22:58:58.183Z,98335.52
2023-01-04T23:01:29.500Z,98323.84
2023-01-04T23:03:59.919Z,98313.23
2023-01-04T23:06:29.515Z,98314.27
2023-01-04T23:09:00.198Z,98307.51
2023-01-04T23:11:30.419Z,98298.85
2023-01-04T23:13:58.911Z,98299.75
2023-01-04T23:16:32.355Z,98299.92
2023-01-04T23:19:02.724Z,98292.83
2023-01-04T23:21:32.595Z,98296.21
2023-01-04T23:24:01.399Z,98289.52
2023-01-04T23:26:31.449Z,98286.52
2023-01-04T23:29:00.840Z,98286.30
2023-01-04T23:31:31.121Z,98280.71
2023-01-04T23:34:02.604Z,98278.20
2023-01-04T23:36:36.356Z,98278.52
2023-01-04T23:39:08.086Z,98274.43
2023-01-04T23:41:45.265Z,98274.79
2023-01-04T23:44:16.871Z,98264.93
2023-01-04T23:46:45.568Z,98259.71
2023-01-04T23:49:13.635Z,98265.77
2023-01-04T23:51:42.754Z,98259.86
2023-01-04T23:54:10.960Z,98258.25
2023-01-04T23:56:39.168Z,98240.89
2023-01-04T23:59:07.770Z,98251.13
